createdAt,value
2023-05-14T00:00:54.590Z,101113.73
2023-05-14T00:03:21.713Z,101110.27
2023-05-14T00:05:48.945Z,101108.88
2023-05-14T00:08:16.433Z,101108.88
2023-05-14T00:10:43.461Z,101108.65
2023-05-14T00:13:10.937Z,101107.23
2023-05-14T00:15:38.279Z,101106.54
2023-05-14T00:18:05.537Z,101108.55
2023-05-14T00:20:32.716Z,101114.55
2023-05-14T00:23:00.284Z,101114.56
2023-05-14T00:25:27.478Z,101114.58
2023-05-14T00:27:54.768Z,101113.17
2023-05-14T00:30:21.959Z,101114.63
2023-05-14T00:32:49.375Z,101112.61
2023-05-14T00:35:16.420Z,101114.23
2023-05-14T00:37:43.419Z,101115.52
2023-05-14T00:40:13.176Z,101110.15
2023-05-14T00:42:41.232Z,101109.30
2023-05-14T00:45:08.733Z,101109.31
2023-05-14T00:47:36.541Z,101108.79
2023-05-14T00:50:04.137Z,101108.63
2023-05-14T00:52:31.733Z,101110.77
2023-05-14T00:54:59.033Z,101108.91
2023-05-14T00:57:26.008Z,101113.69
2023-05-14T00:59:53.134Z,101112.65
2023-05-14T01:02:20.222Z,101113.94
2023-05-14T01:04:47.291Z,101115.93
2023-05-14T01:07:26.108Z,101120.46
2023-05-14T01:10:03.401Z,101121.73
2023-05-14T01:12:36.837Z,101125.52
2023-05-14T01:15:11.464Z,101125.02
2023-05-14T01:17:46.781Z,101125.02
2023-05-14T01:20:13.928Z,101124.70
2023-05-14T01:22:41.032Z,101126.14
2023-05-14T01:25:08.669Z,101127.02
2023-05-14T01:28:21.029Z,101129.10
2023-05-14T01:30:56.424Z,101125.20
2023-05-14T01:33:24.884Z,101119.18
2023-05-14T01:35:53.933Z,101120.71
2023-05-14T01:38:20.959Z,101117.00
2023-05-14T01:40:48.584Z,101121.64
2023-05-14T01:43:15.840Z,101125.41
2023-05-14T01:45:43.855Z,101121.14
2023-05-14T01:48:11.165Z,101120.05
2023-05-14T01:50:38.751Z,101120.87
2023-05-14T01:53:05.924Z,101121.85
2023-05-14T01:55:32.984Z,101124.61
2023-05-14T01:57:59.987Z,101125.96
2023-05-14T02:00:27.235Z,101128.77
2023-05-14T02:02:54.378Z,101128.70
2023-05-14T02:05:23.425Z,101130.54
2023-05-14T02:07:50.523Z,101132.53
2023-05-14T02:10:17.622Z,101130.29
2023-05-14T02:12:48.552Z,101133.80
2023-05-14T02:15:15.654Z,101129.25
2023-05-14T02:17:42.771Z,101128.52
2023-05-14T02:20:11.843Z,101130.12
2023-05-14T02:22:38.931Z,101133.59
2023-05-14T02:25:06.811Z,101131.33
2023-05-14T02:27:33.925Z,101131.45
2023-05-14T02:30:01.182Z,101134.21
2023-05-14T02:32:28.733Z,101133.98
2023-05-14T02:34:55.993Z,101133.01
2023-05-14T02:37:23.037Z,101136.34
2023-05-14T02:39:50.119Z,101142.22
2023-05-14T02:42:17.161Z,101134.54
2023-05-14T02:44:44.181Z,101141.98
2023-05-14T02:47:11.283Z,101143.42
2023-05-14T02:49:38.392Z,101136.45
2023-05-14T02:52:05.686Z,101139.05
2023-05-14T02:54:32.679Z,101137.20
2023-05-14T02:56:59.687Z,101137.73
2023-05-14T02:59:26.968Z,101137.30
2023-05-14T03:01:54.589Z,101139.89
2023-05-14T03:04:22.169Z,101139.45
2023-05-14T03:06:49.209Z,101136.34
2023-05-14T03:09:16.350Z,101138.87
2023-05-14T03:11:43.449Z,101137.17
2023-05-14T03:14:10.462Z,101142.71
2023-05-14T03:16:37.735Z,101141.70
2023-05-14T03:19:04.868Z,101146.39
2023-05-14T03:21:32.451Z,101143.70
2023-05-14T03:23:59.606Z,101150.79
2023-05-14T03:26:26.692Z,101152.23
2023-05-14T03:28:53.739Z,101155.05
2023-05-14T03:31:20.892Z,101156.05
2023-05-14T03:33:47.884Z,101152.86
2023-05-14T03:36:14.940Z,101158.30
2023-05-14T03:38:41.920Z,101160.75
2023-05-14T03:41:08.943Z,101163.30
2023-05-14T03:43:36.624Z,101166.27
2023-05-14T03:46:03.681Z,101169.98
2023-05-14T03:48:30.812Z,101173.58
2023-05-14T03:50:57.930Z,101174.48
2023-05-14T03:53:24.990Z,101177.90
2023-05-14T03:55:52.171Z,101173.40
2023-05-14T03:58:19.253Z,101169.48
2023-05-14T04:00:46.292Z,101172.98
2023-05-14T04:03:13.432Z,101170.84
2023-05-14T04:05:40.723Z,101169.73
2023-05-14T04:08:07.869Z,101166.35
2023-05-14T04:10:34.921Z,101163.94
2023-05-14T04:13:01.973Z,101161.02
2023-05-14T04:15:32.807Z,101156.25
2023-05-14T04:17:59.888Z,101159.28
2023-05-14T04:20:27.911Z,101157.10
2023-05-14T04:22:55.700Z,101160.52
2023-05-14T04:25:22.909Z,101160.02
2023-05-14T04:27:50.020Z,101158.13
2023-05-14T04:30:17.074Z,101158.20
2023-05-14T04:32:44.573Z,101157.67
2023-05-14T04:35:13.087Z,101159.50
2023-05-14T04:37:40.701Z,101157.83
2023-05-14T04:40:11.523Z,101157.13
2023-05-14T04:42:39.194Z,101149.91
2023-05-14T04:45:07.044Z,101153.17
2023-05-14T04:47:34.151Z,101148.14
2023-05-14T04:50:01.195Z,101145.70
2023-05-14T04:52:28.305Z,101144.83
2023-05-14T04:54:55.458Z,101143.81
2023-05-14T04:57:22.557Z,101139.27
2023-05-14T04:59:49.610Z,101139.73
2023-05-14T05:02:16.616Z,101145.19
2023-05-14T05:04:43.596Z,101143.48
2023-05-14T05:07:10.935Z,101139.92
2023-05-14T05:09:37.961Z,101137.08
2023-05-14T05:12:05.620Z,101136.45
2023-05-14T05:14:32.672Z,101130.66
2023-05-14T05:16:59.671Z,101130.35
2023-05-14T05:19:39.533Z,101131.11
2023-05-14T05:22:07.111Z,101132.96
2023-05-14T05:24:34.172Z,101133.92
2023-05-14T05:27:01.214Z,101134.63
2023-05-14T05:29:28.228Z,101137.41
2023-05-14T05:31:55.318Z,101135.52
2023-05-14T05:34:22.453Z,101136.40
2023-05-14T05:36:49.506Z,101132.96
2023-05-14T05:39:16.761Z,101133.86
2023-05-14T05:41:44.500Z,101133.38
2023-05-14T05:44:11.510Z,101134.27
2023-05-14T05:46:38.652Z,101133.39
2023-05-14T05:49:05.734Z,101130.59
2023-05-14T05:51:33.357Z,101130.63
2023-05-14T05:54:00.573Z,101128.36
2023-05-14T05:57:06.090Z,101132.79
2023-05-14T05:59:33.348Z,101134.08
2023-05-14T06:02:00.485Z,101129.48
2023-05-14T06:04:27.592Z,101126.56
2023-05-14T06:06:54.719Z,101127.45
2023-05-14T06:09:21.711Z,101123.10
2023-05-14T06:11:48.733Z,101120.80
2023-05-14T06:14:15.853Z,101123.09
2023-05-14T06:16:42.918Z,101121.60
2023-05-14T06:19:10.652Z,101121.90
2023-05-14T06:21:38.313Z,101120.36
2023-05-14T06:24:05.941Z,101120.14
2023-05-14T06:26:33.045Z,101114.24
2023-05-14T06:29:00.060Z,101116.69
2023-05-14T06:31:27.311Z,101116.58
2023-05-14T06:33:54.375Z,101117.95
2023-05-14T06:36:21.421Z,101117.39
2023-05-14T06:38:48.417Z,101115.98
2023-05-14T06:41:15.722Z,101114.30
2023-05-14T06:43:42.825Z,101112.31
2023-05-14T06:46:09.777Z,101111.16
2023-05-14T06:48:36.811Z,101106.32
2023-05-14T06:51:04.051Z,101106.80
2023-05-14T06:53:31.575Z,101106.16
2023-05-14T06:55:58.600Z,101105.91
2023-05-14T06:58:25.601Z,101103.49
2023-05-14T07:00:52.642Z,101102.63
2023-05-14T07:03:19.778Z,101108.59
2023-05-14T07:05:46.896Z,101106.16
2023-05-14T07:08:13.998Z,101101.74
2023-05-14T07:10:41.069Z,101100.31
2023-05-14T07:13:08.432Z,101093.73
2023-05-14T07:15:35.605Z,101090.44
2023-05-14T07:18:02.674Z,101091.58
2023-05-14T07:20:29.703Z,101085.16
2023-05-14T07:22:56.721Z,101088.98
2023-05-14T07:25:23.747Z,101085.45
2023-05-14T07:27:50.799Z,101084.98
2023-05-14T07:30:17.854Z,101080.42
2023-05-14T07:32:45.213Z,101083.85
2023-05-14T07:35:12.341Z,101083.51
2023-05-14T07:37:39.456Z,101084.55
2023-05-14T07:40:07.409Z,101083.69
2023-05-14T07:42:36.971Z,101087.52
2023-05-14T07:45:05.245Z,101086.13
2023-05-14T07:47:32.406Z,101086.06
2023-05-14T07:49:59.681Z,101084.73
2023-05-14T07:52:26.738Z,101078.00
2023-05-14T07:54:53.909Z,101080.95
2023-05-14T07:57:21.014Z,101085.42
2023-05-14T07:59:48.469Z,101081.08
2023-05-14T08:02:17.079Z,101077.82
2023-05-14T08:04:44.678Z,101078.81
2023-05-14T08:07:11.838Z,101075.55
2023-05-14T08:09:38.933Z,101074.08
2023-05-14T08:12:06.908Z,101073.92
2023-05-14T08:14:34.062Z,101072.83
2023-05-14T08:17:01.146Z,101065.71
2023-05-14T08:19:28.657Z,101068.90
2023-05-14T08:21:55.784Z,101068.04
2023-05-14T08:24:22.879Z,101069.74
2023-05-14T08:26:49.944Z,101068.30
2023-05-14T08:29:16.998Z,101062.95
2023-05-14T08:31:44.242Z,101062.54
2023-05-14T08:34:11.244Z,101055.50
2023-05-14T08:36:39.113Z,101049.25
2023-05-14T08:39:07.974Z,101059.38
2023-05-14T08:41:35.083Z,101056.05
2023-05-14T08:44:15.151Z,101050.56
2023-05-14T08:46:42.337Z,101050.33
2023-05-14T08:49:37.649Z,101048.05
2023-05-14T08:52:05.102Z,101044.64
2023-05-14T08:54:32.821Z,101041.63
2023-05-14T08:56:59.926Z,101030.93
2023-05-14T08:59:27.009Z,101024.70
2023-05-14T09:01:54.616Z,101024.87
2023-05-14T09:04:23.363Z,101016.89
2023-05-14T09:06:52.055Z,101021.19
2023-05-14T09:09:19.455Z,101017.85
2023-05-14T09:11:46.633Z,101011.73
2023-05-14T09:14:13.671Z,101016.00
2023-05-14T09:16:42.964Z,101016.55
2023-05-14T09:19:10.125Z,101014.17
2023-05-14T09:21:37.275Z,101007.09
2023-05-14T09:24:04.513Z,101004.97
2023-05-14T09:26:35.146Z,100994.55
2023-05-14T09:29:02.909Z,100992.56
2023-05-14T09:31:31.263Z,100989.20
2023-05-14T09:33:58.639Z,100995.73
2023-05-14T09:36:27.438Z,100987.39
2023-05-14T09:38:58.262Z,100989.48
2023-05-14T09:41:26.049Z,100986.83
2023-05-14T09:43:53.281Z,100983.97
2023-05-14T09:46:20.434Z,100983.36
2023-05-14T09:48:47.578Z,100981.78
2023-05-14T09:51:14.725Z,100977.48
2023-05-14T09:53:42.077Z,100980.49
2023-05-14T09:56:09.500Z,100981.26
2023-05-14T09:58:36.619Z,100985.04
2023-05-14T10:01:04.460Z,100986.67
2023-05-14T10:03:31.610Z,100977.73
2023-05-14T10:06:01.354Z,100975.17
2023-05-14T10:08:34.295Z,100969.75
2023-05-14T10:11:04.650Z,100970.70
2023-05-14T10:13:42.449Z,100968.88
2023-05-14T10:16:40.811Z,100963.44
2023-05-14T10:19:11.802Z,100956.18
2023-05-14T10:21:40.735Z,100956.27
2023-05-14T10:24:08.801Z,100952.25
2023-05-14T10:26:41.090Z,100950.86
2023-05-14T10:29:10.280Z,100952.38
2023-05-14T10:31:49.834Z,100946.94
2023-05-14T10:34:41.320Z,100945.95
2023-05-14T10:37:13.201Z,100939.11
2023-05-14T10:39:43.918Z,100937.92
2023-05-14T10:42:13.234Z,100940.71
2023-05-14T10:45:02.563Z,100938.81
2023-05-14T10:47:29.698Z,100937.43
2023-05-14T10:49:59.223Z,100928.99
2023-05-14T10:52:26.566Z,100928.77
2023-05-14T10:54:58.781Z,100932.23
2023-05-14T10:57:28.268Z,100923.89
2023-05-14T10:59:56.454Z,100922.39
2023-05-14T11:02:25.873Z,100920.34
2023-05-14T11:04:59.909Z,100919.47
2023-05-14T11:07:38.906Z,100911.85
2023-05-14T11:10:20.357Z,100912.17
2023-05-14T11:12:48.740Z,100913.05
2023-05-14T11:15:22.566Z,100911.95
2023-05-14T11:17:50.170Z,100905.39
2023-05-14T11:20:17.634Z,100903.46
2023-05-14T11:22:45.445Z,100902.14
2023-05-14T11:25:15.144Z,100900.10
2023-05-14T11:27:44.561Z,100901.06
2023-05-14T11:30:19.711Z,100896.59
2023-05-14T11:32:48.360Z,100896.02
2023-05-14T11:35:16.292Z,100897.32
2023-05-14T11:37:44.011Z,100896.11
2023-05-14T11:40:18.377Z,100895.52
2023-05-14T11:42:45.929Z,100896.04
2023-05-14T11:45:13.750Z,100894.46
2023-05-14T11:47:44.202Z,100892.02
2023-05-14T11:50:11.590Z,100891.30
2023-05-14T11:52:40.510Z,100892.23
2023-05-14T11:55:11.659Z,100891.83
2023-05-14T11:57:38.707Z,100891.66
2023-05-14T12:00:09.298Z,100896.95
2023-05-14T12:02:36.479Z,100893.02
2023-05-14T12:05:07.473Z,100894.17
2023-05-14T12:07:34.554Z,100901.11
2023-05-14T12:10:02.805Z,100904.46
2023-05-14T12:12:37.630Z,100904.96
2023-05-14T12:15:12.859Z,100910.73
2023-05-14T12:17:40.309Z,100911.00
2023-05-14T12:20:11.232Z,100913.79
2023-05-14T12:22:38.767Z,100909.86
2023-05-14T12:25:12.583Z,100913.23
2023-05-14T12:27:39.657Z,100911.27
2023-05-14T12:30:20.679Z,100918.34
2023-05-14T12:32:52.092Z,100916.95
2023-05-14T12:35:19.387Z,100914.65
2023-05-14T12:37:46.537Z,100914.46
2023-05-14T12:40:14.109Z,100917.07
2023-05-14T12:42:41.226Z,100919.50
2023-05-14T12:45:21.380Z,100919.17
2023-05-14T12:47:48.553Z,100916.96
2023-05-14T12:50:16.642Z,100921.87
2023-05-14T12:52:43.761Z,100933.60
2023-05-14T12:55:11.259Z,100939.00
2023-05-14T12:57:39.502Z,100948.80
2023-05-14T13:00:08.701Z,100956.41
2023-05-14T13:02:42.180Z,100965.98
2023-05-14T13:05:11.454Z,100968.79
2023-05-14T13:07:38.996Z,100970.64
2023-05-14T13:10:06.951Z,100968.84
2023-05-14T13:12:34.659Z,100969.81
2023-05-14T13:15:01.770Z,100966.95
2023-05-14T13:17:28.783Z,100965.27
2023-05-14T13:19:55.831Z,100962.80
2023-05-14T13:22:22.857Z,100959.31
2023-05-14T13:24:49.818Z,100958.98
2023-05-14T13:27:16.867Z,100951.09
2023-05-14T13:29:44.078Z,100953.05
2023-05-14T13:32:11.140Z,100947.42
2023-05-14T13:34:38.177Z,100946.75
2023-05-14T13:37:05.224Z,100947.27
2023-05-14T13:39:32.220Z,100952.23
2023-05-14T13:41:59.194Z,100947.35
2023-05-14T13:44:26.292Z,100943.88
2023-05-14T13:46:53.867Z,100945.08
2023-05-14T13:49:21.439Z,100939.84
2023-05-14T13:51:48.514Z,100940.25
2023-05-14T13:54:15.615Z,100934.59
2023-05-14T13:56:42.710Z,100930.33
2023-05-14T13:59:09.732Z,100926.05
2023-05-14T14:01:36.923Z,100921.98
2023-05-14T14:04:03.993Z,100908.23
2023-05-14T14:06:31.326Z,100907.79
2023-05-14T14:08:58.815Z,100906.26
2023-05-14T14:11:26.169Z,100905.44
2023-05-14T14:13:53.645Z,100899.73
2023-05-14T14:16:21.043Z,100894.46
2023-05-14T14:18:48.231Z,100894.04
2023-05-14T14:21:18.501Z,100893.27
2023-05-14T14:23:49.101Z,100894.46
2023-05-14T14:26:16.366Z,100899.52
2023-05-14T14:28:43.525Z,100903.32
2023-05-14T14:31:11.215Z,100907.05
2023-05-14T14:33:38.279Z,100908.25
2023-05-14T14:36:06.176Z,100910.42
2023-05-14T14:38:33.227Z,100908.42
2023-05-14T14:41:00.630Z,100910.41
2023-05-14T14:43:27.624Z,100905.98
2023-05-14T14:45:55.064Z,100905.15
2023-05-14T14:48:40.251Z,100904.96
2023-05-14T14:51:07.966Z,100907.17
2023-05-14T14:53:38.943Z,100909.45
2023-05-14T14:56:06.667Z,100909.11
2023-05-14T14:58:33.909Z,100910.13
2023-05-14T15:01:01.529Z,100908.23
2023-05-14T15:03:29.111Z,100909.20
2023-05-14T15:05:56.421Z,100907.14
2023-05-14T15:08:30.004Z,100909.12
2023-05-14T15:10:57.149Z,100903.09
2023-05-14T15:13:24.885Z,100900.33
2023-05-14T15:15:52.698Z,100904.09
2023-05-14T15:18:19.985Z,100901.15
2023-05-14T15:20:47.070Z,100900.65
2023-05-14T15:23:14.116Z,100900.09
2023-05-14T15:25:41.210Z,100895.13
2023-05-14T15:28:08.343Z,100892.45
2023-05-14T15:30:35.446Z,100890.14
2023-05-14T15:33:02.628Z,100888.49
2023-05-14T15:35:29.771Z,100893.30
2023-05-14T15:37:59.562Z,100892.80
2023-05-14T15:40:27.443Z,100893.15
2023-05-14T15:42:54.818Z,100892.58
2023-05-14T15:45:21.971Z,100893.52
2023-05-14T15:47:49.009Z,100893.80
2023-05-14T15:50:16.068Z,100898.06
2023-05-14T15:52:43.179Z,100896.53
2023-05-14T15:55:10.857Z,100893.84
2023-05-14T15:57:37.971Z,100897.98
2023-05-14T16:00:11.666Z,100899.12
2023-05-14T16:02:39.732Z,100897.86
2023-05-14T16:05:07.725Z,100900.78
2023-05-14T16:07:34.860Z,100899.21
2023-05-14T16:10:01.858Z,100900.51
2023-05-14T16:12:28.926Z,100898.96
2023-05-14T16:14:57.781Z,100902.42
2023-05-14T16:17:26.653Z,100902.13
2023-05-14T16:19:56.330Z,100903.58
2023-05-14T16:22:23.879Z,100904.50
2023-05-14T16:24:51.176Z,100912.62
2023-05-14T16:27:21.058Z,100910.74
2023-05-14T16:29:48.097Z,100906.80
2023-05-14T16:32:15.226Z,100915.23
2023-05-14T16:34:47.624Z,100916.60
2023-05-14T16:37:15.617Z,100914.75
2023-05-14T16:39:43.482Z,100918.45
2023-05-14T16:42:11.022Z,100917.71
2023-05-14T16:44:38.183Z,100922.98
2023-05-14T16:47:05.627Z,100918.67
2023-05-14T16:49:32.682Z,100920.96
2023-05-14T16:51:59.770Z,100918.83
2023-05-14T16:54:26.773Z,100919.89
2023-05-14T16:56:53.837Z,100923.45
2023-05-14T16:59:20.867Z,100921.25
2023-05-14T17:01:48.471Z,100918.08
2023-05-14T17:04:16.093Z,100920.55
2023-05-14T17:06:43.147Z,100925.58
2023-05-14T17:09:10.205Z,100926.52
2023-05-14T17:11:37.349Z,100935.72
2023-05-14T17:14:04.583Z,100934.99
2023-05-14T17:16:31.694Z,100933.45
2023-05-14T17:18:58.755Z,100935.39
2023-05-14T17:21:26.535Z,100936.81
2023-05-14T17:23:53.776Z,100935.48
2023-05-14T17:26:21.485Z,100935.05
2023-05-14T17:28:48.550Z,100932.20
2023-05-14T17:31:15.753Z,100932.73
2023-05-14T17:33:42.901Z,100927.16
2023-05-14T17:36:10.012Z,100926.79
2023-05-14T17:38:37.450Z,100929.11
2023-05-14T17:41:04.547Z,100929.44
2023-05-14T17:43:31.573Z,100928.30
2023-05-14T17:45:59.005Z,100928.14
2023-05-14T17:48:26.071Z,100934.61
2023-05-14T17:50:53.060Z,100940.84
2023-05-14T17:53:21.200Z,100943.54
2023-05-14T17:55:48.397Z,100948.75
2023-05-14T17:58:16.263Z,100952.46
2023-05-14T18:00:43.934Z,100949.79
2023-05-14T18:03:11.890Z,100958.63
2023-05-14T18:05:39.364Z,100957.41
2023-05-14T18:08:07.000Z,100953.88
2023-05-14T18:10:34.529Z,100952.16
2023-05-14T18:14:45.762Z,100953.40
2023-05-14T18:17:13.082Z,100946.77
2023-05-14T18:19:41.220Z,100947.05
2023-05-14T18:22:08.239Z,100944.09
2023-05-14T18:24:35.388Z,100947.42
2023-05-14T18:27:02.488Z,100945.32
2023-05-14T18:29:29.596Z,100947.85
2023-05-14T18:31:56.970Z,100951.45
2023-05-14T18:34:24.023Z,100946.94
2023-05-14T18:36:51.178Z,100942.39
2023-05-14T18:39:18.199Z,100942.32
2023-05-14T18:41:45.244Z,100941.30
2023-05-14T18:44:12.211Z,100942.48
2023-05-14T18:46:39.452Z,100947.91
2023-05-14T18:49:06.861Z,100947.70
2023-05-14T18:51:33.933Z,100952.91
2023-05-14T18:54:01.051Z,100952.70
2023-05-14T18:56:28.102Z,100950.88
2023-05-14T18:58:55.188Z,100946.27
2023-05-14T19:01:25.758Z,100949.04
2023-05-14T19:03:53.308Z,100946.60
2023-05-14T19:06:20.465Z,100945.11
2023-05-14T19:08:47.439Z,100948.45
2023-05-14T19:11:14.484Z,100949.87
2023-05-14T19:13:41.600Z,100947.98
2023-05-14T19:16:08.679Z,100949.48
2023-05-14T19:18:35.720Z,100949.99
2023-05-14T19:21:03.122Z,100944.88
2023-05-14T19:23:31.259Z,100946.20
2023-05-14T19:25:58.448Z,100947.59
2023-05-14T19:28:25.576Z,100944.70
2023-05-14T19:30:53.608Z,100941.49
2023-05-14T19:33:20.682Z,100941.90
2023-05-14T19:35:47.792Z,100940.33
2023-05-14T19:38:15.186Z,100944.65
2023-05-14T19:40:43.657Z,100942.14
2023-05-14T19:43:12.076Z,100942.94
2023-05-14T19:45:39.380Z,100940.50
2023-05-14T19:48:06.918Z,100945.81
2023-05-14T19:50:34.283Z,100940.66
2023-05-14T19:53:01.475Z,100945.38
2023-05-14T19:55:28.592Z,100943.58
2023-05-14T19:57:55.608Z,100942.96
2023-05-14T20:00:23.015Z,100943.05
2023-05-14T20:02:50.055Z,100941.46
2023-05-14T20:05:17.220Z,100938.51
2023-05-14T20:07:45.114Z,100938.05
2023-05-14T20:10:12.183Z,100939.77
2023-05-14T20:12:39.218Z,100938.85
2023-05-14T20:15:06.532Z,100940.88
2023-05-14T20:17:33.649Z,100941.96
2023-05-14T20:20:01.677Z,100943.55
2023-05-14T20:22:28.662Z,100945.98
2023-05-14T20:24:56.072Z,100938.38
2023-05-14T20:27:23.154Z,100939.39
2023-05-14T20:29:51.662Z,100938.89
2023-05-14T20:32:18.714Z,100938.89
2023-05-14T20:34:45.671Z,100939.20
2023-05-14T20:37:13.193Z,100939.07
2023-05-14T20:39:40.319Z,100939.55
2023-05-14T20:42:07.550Z,100943.80
2023-05-14T20:44:34.608Z,100943.48
2023-05-14T20:47:01.656Z,100940.38
2023-05-14T20:49:28.687Z,100939.48
2023-05-14T20:51:55.764Z,100941.82
2023-05-14T20:54:22.811Z,100940.28
2023-05-14T20:56:49.840Z,100941.11
2023-05-14T20:59:16.897Z,100938.87
2023-05-14T21:01:43.958Z,100938.04
2023-05-14T21:04:11.555Z,100937.65
2023-05-14T21:06:38.822Z,100941.42
2023-05-14T21:09:05.797Z,100937.73
2023-05-14T21:11:32.916Z,100938.54
2023-05-14T21:13:59.892Z,100942.50
2023-05-14T21:16:26.913Z,100945.35
2023-05-14T21:18:54.017Z,100942.88
2023-05-14T21:21:21.119Z,100944.58
2023-05-14T21:23:48.186Z,100945.20
2023-05-14T21:26:15.181Z,100946.48
2023-05-14T21:28:42.206Z,100946.27
2023-05-14T21:31:09.301Z,100946.48
2023-05-14T21:33:36.344Z,100947.52
2023-05-14T21:36:03.508Z,100950.92
2023-05-14T21:38:31.899Z,100948.39
2023-05-14T21:40:59.868Z,100945.20
2023-05-14T21:43:27.296Z,100944.81
2023-05-14T21:45:54.323Z,100942.36
2023-05-14T21:48:21.748Z,100941.30
2023-05-14T21:50:48.881Z,100938.73
2023-05-14T21:53:15.921Z,100942.86
2023-05-14T21:55:42.931Z,100945.39
2023-05-14T21:58:09.903Z,100945.92
2023-05-14T22:00:36.923Z,100945.23
2023-05-14T22:03:04.294Z,100940.89
2023-05-14T22:05:31.531Z,100936.51
2023-05-14T22:07:58.652Z,100941.39
2023-05-14T22:10:25.758Z,100936.00
2023-05-14T22:12:52.810Z,100938.30
2023-05-14T22:15:19.936Z,100937.41
2023-05-14T22:17:47.699Z,100932.90
2023-05-14T22:20:14.709Z,100936.31
2023-05-14T22:22:41.671Z,100931.27
2023-05-14T22:25:09.096Z,100929.23
2023-05-14T22:27:36.073Z,100927.52
2023-05-14T22:30:03.121Z,100929.01
2023-05-14T22:32:30.143Z,100924.30
2023-05-14T22:34:57.185Z,100922.80
2023-05-14T22:37:24.183Z,100920.08
2023-05-14T22:39:51.245Z,100919.85
2023-05-14T22:42:20.444Z,100917.81
2023-05-14T22:44:47.591Z,100913.95
2023-05-14T22:47:14.651Z,100914.04
2023-05-14T22:49:42.307Z,100916.65
2023-05-14T22:52:09.361Z,100914.13
2023-05-14T22:54:36.811Z,100910.50
2023-05-14T22:57:04.036Z,100911.66
2023-05-14T22:59:31.052Z,100908.86
2023-05-14T23:01:58.084Z,100907.80
2023-05-14T23:04:25.248Z,100906.45
2023-05-14T23:06:52.340Z,100913.43
2023-05-14T23:09:19.382Z,100908.36
2023-05-14T23:11:46.519Z,100907.45
2023-05-14T23:14:13.530Z,100905.02
2023-05-14T23:16:40.578Z,100902.25
2023-05-14T23:19:07.723Z,100901.80
2023-05-14T23:21:34.887Z,100900.20
2023-05-14T23:24:01.954Z,100894.09
2023-05-14T23:26:28.959Z,100896.41
2023-05-14T23:28:55.926Z,100892.48
2023-05-14T23:31:23.025Z,100892.35
2023-05-14T23:33:50.048Z,100888.86
2023-05-14T23:36:17.098Z,100891.00
2023-05-14T23:38:44.104Z,100891.52
2023-05-14T23:41:11.135Z,100895.30
2023-05-14T23:43:38.140Z,100899.87
2023-05-14T23:46:05.237Z,100892.97
2023-05-14T23:48:32.415Z,100895.20
2023-05-14T23:50:59.634Z,100887.02
2023-05-14T23:53:26.597Z,100894.13
2023-05-14T23:55:53.606Z,100894.77
2023-05-14T23:58:21.012Z,100897.52
